sensor_id;sensor_type;location;lat;lon;timestamp;pressure;altitude;pressure_sealevel;temperature;humidity
7433;BME280;32233;49.500;7.764;2024-02-15T00:02:23;98826.28;;;8.38;100.00
7433;BME280;32233;49.500;7.764;2024-02-15T00:04:49;98817.13;;;8.26;100.00
7433;BME280;32233;49.500;7.764;2024-02-15T00:07:16;98823.75;;;8.22;100.00
7433;BME280;32233;49.500;7.764;2024-02-15T00:09:43;98812.41;;;8.22;100.00
7433;BME280;32233;49.500;7.764;2024-02-15T00:12:10;98817.47;;;8.23;100.00
7433;BME280;32233;49.500;7.764;2024-02-15T00:14:36;98815.38;;;8.18;100.00
7433;BME280;32233;49.500;7.764;2024-02-15T00:17:05;98815.19;;;8.20;100.00
7433;BME280;32233;49.500;7.764;2024-02-15T00:19:31;98823.00;;;8.13;100.00
7433;BME280;32233;49.500;7.764;2024-02-15T00:21:58;98820.91;;;8.09;100.00
7433;BME280;32233;49.500;7.764;2024-02-15T00:24:26;98815.25;;;8.12;100.00
7433;BME280;32233;49.500;7.764;2024-02-15T00:26:52;98823.00;;;8.13;100.00
7433;BME280;32233;49.500;7.764;2024-02-15T00:29:20;98816.97;;;8.05;100.00
7433;BME280;32233;49.500;7.764;2024-02-15T00:31:47;98820.25;;;8.07;100.00
7433;BME280;32233;49.500;7.764;2024-02-15T00:34:15;98806.28;;;8.44;100.00
7433;BME280;32233;49.500;7.764;2024-02-15T00:36:43;98816.59;;;8.54;100.00
7433;BME280;32233;49.500;7.764;2024-02-15T00:39:11;98813.72;;;8.40;100.00
7433;BME280;32233;49.500;7.764;2024-02-15T00:41:38;98815.13;;;8.51;100.00
7433;BME280;32233;49.500;7.764;2024-02-15T00:44:09;98822.16;;;8.36;100.00
7433;BME280;32233;49.500;7.764;2024-02-15T00:46:37;98829.22;;;8.35;100.00
7433;BME280;32233;49.500;7.764;2024-02-15T00:49:04;98827.94;;;8.31;100.00
7433;BME280;32233;49.500;7.764;2024-02-15T00:51:35;98828.28;;;8.28;100.00
7433;BME280;32233;49.500;7.764;2024-02-15T00:54:03;98825.22;;;8.25;100.00
7433;BME280;32233;49.500;7.764;2024-02-15T00:56:30;98820.31;;;8.22;100.00
7433;BME280;32233;49.500;7.764;2024-02-15T00:59:01;98819.81;;;8.18;100.00
7433;BME280;32233;49.500;7.764;2024-02-15T01:01:28;98812.63;;;8.12;100.00
7433;BME280;32233;49.500;7.764;2024-02-15T01:03:55;98818.88;;;8.11;100.00
7433;BME280;32233;49.500;7.764;2024-02-15T01:06:21;98815.25;;;8.12;100.00
7433;BME280;32233;49.500;7.764;2024-02-15T01:08:49;98814.81;;;8.08;100.00
7433;BME280;32233;49.500;7.764;2024-02-15T01:11:17;98815.97;;;8.06;100.00
7433;BME280;32233;49.500;7.764;2024-02-15T01:13:43;98815.03;;;7.99;100.00
7433;BME280;32233;49.500;7.764;2024-02-15T01:16:11;98814.50;;;8.03;100.00
7433;BME280;32233;49.500;7.764;2024-02-15T01:18:38;98810.84;;;8.12;100.00
7433;BME280;32233;49.500;7.764;2024-02-15T01:21:05;98808.06;;;8.06;100.00
7433;BME280;32233;49.500;7.764;2024-02-15T01:23:33;98820.47;;;7.97;100.00
7433;BME280;32233;49.500;7.764;2024-02-15T01:26:01;98813.69;;;8.03;100.00
7433;BME280;32233;49.500;7.764;2024-02-15T01:28:28;98818.47;;;7.99;100.00
7433;BME280;32233;49.500;7.764;2024-02-15T01:30:55;98812.59;;;7.97;100.00
7433;BME280;32233;49.500;7.764;2024-02-15T01:33:22;98819.13;;;8.01;100.00
7433;BME280;32233;49.500;7.764;2024-02-15T01:35:48;98811.78;;;7.97;100.00
7433;BME280;32233;49.500;7.764;2024-02-15T01:38:15;98813.59;;;7.96;100.00
7433;BME280;32233;49.500;7.764;2024-02-15T01:40:42;98815.22;;;7.97;100.00
7433;BME280;32233;49.500;7.764;2024-02-15T01:43:09;98810.78;;;7.98;100.00
7433;BME280;32233;49.500;7.764;2024-02-15T01:45:35;98815.22;;;7.97;100.00
7433;BME280;32233;49.500;7.764;2024-02-15T01:48:02;98815.03;;;7.99;100.00
7433;BME280;32233;49.500;7.764;2024-02-15T01:50:31;98808.66;;;7.93;100.00
7433;BME280;32233;49.500;7.764;2024-02-15T01:53:01;98815.81;;;7.84;100.00
7433;BME280;32233;49.500;7.764;2024-02-15T01:55:30;98802.94;;;7.89;100.00
7433;BME280;32233;49.500;7.764;2024-02-15T01:57:59;98806.56;;;7.88;100.00
7433;BME280;32233;49.500;7.764;2024-02-15T02:00:27;98806.03;;;7.93;100.00
7433;BME280;32233;49.500;7.764;2024-02-15T02:02:54;98804.41;;;7.92;100.00
7433;BME280;32233;49.500;7.764;2024-02-15T02:05:30;98805.91;;;7.86;100.00
7433;BME280;32233;49.500;7.764;2024-02-15T02:07:58;98805.91;;;7.86;100.00
7433;BME280;32233;49.500;7.764;2024-02-15T02:10:28;98800.09;;;7.91;100.00
7433;BME280;32233;49.500;7.764;2024-02-15T02:13:00;98795.16;;;7.96;100.00
7433;BME280;32233;49.500;7.764;2024-02-15T02:15:33;98795.66;;;7.91;100.00
7433;BME280;32233;49.500;7.764;2024-02-15T02:18:00;98795.31;;;7.94;100.00
7433;BME280;32233;49.500;7.764;2024-02-15T02:20:27;98787.13;;;7.89;100.00
7433;BME280;32233;49.500;7.764;2024-02-15T02:23:01;98791.88;;;7.94;100.00
7433;BME280;32233;49.500;7.764;2024-02-15T02:25:34;98789.06;;;7.95;100.00
7433;BME280;32233;49.500;7.764;2024-02-15T02:28:01;98785.78;;;7.93;100.00
7433;BME280;32233;49.500;7.764;2024-02-15T02:30:28;98785.13;;;7.91;100.00
7433;BME280;32233;49.500;7.764;2024-02-15T02:32:57;98786.88;;;7.99;100.00
7433;BME280;32233;49.500;7.764;2024-02-15T02:35:26;98789.94;;;8.11;100.00
7433;BME280;32233;49.500;7.764;2024-02-15T02:37:53;98786.41;;;8.18;100.00
7433;BME280;32233;49.500;7.764;2024-02-15T02:40:20;98786.75;;;8.15;100.00
7433;BME280;32233;49.500;7.764;2024-02-15T02:42:51;98783.84;;;8.10;100.00
7433;BME280;32233;49.500;7.764;2024-02-15T02:45:19;98789.00;;;8.04;100.00
7433;BME280;32233;49.500;7.764;2024-02-15T02:47:46;98783.44;;;7.99;100.00
7433;BME280;32233;49.500;7.764;2024-02-15T02:50:20;98785.31;;;7.90;100.00
7433;BME280;32233;49.500;7.764;2024-02-15T02:52:47;98786.31;;;7.89;100.00
7433;BME280;32233;49.500;7.764;2024-02-15T02:55:15;98795.22;;;7.88;100.00
7433;BME280;32233;49.500;7.764;2024-02-15T02:57:42;98788.81;;;7.82;100.00
7433;BME280;32233;49.500;7.764;2024-02-15T03:00:10;98783.75;;;7.81;100.00
7433;BME280;32233;49.500;7.764;2024-02-15T03:02:43;98779.53;;;7.72;100.00
7433;BME280;32233;49.500;7.764;2024-02-15T03:05:10;98780.16;;;7.74;100.00
7433;BME280;32233;49.500;7.764;2024-02-15T03:07:40;98782.94;;;7.80;100.00
7433;BME280;32233;49.500;7.764;2024-02-15T03:10:07;98787.19;;;7.81;100.00
7433;BME280;32233;49.500;7.764;2024-02-15T03:12:38;98794.97;;;7.75;100.00
7433;BME280;32233;49.500;7.764;2024-02-15T03:15:06;98784.81;;;7.72;100.00
7433;BME280;32233;49.500;7.764;2024-02-15T03:17:39;98790.06;;;7.72;100.00
7433;BME280;32233;49.500;7.764;2024-02-15T03:20:07;98784.91;;;7.78;100.00
7433;BME280;32233;49.500;7.764;2024-02-15T03:22:53;98787.38;;;7.80;100.00
7433;BME280;32233;49.500;7.764;2024-02-15T03:25:20;98781.28;;;7.79;100.00
7433;BME280;32233;49.500;7.764;2024-02-15T03:27:55;98777.47;;;7.82;100.00
7433;BME280;32233;49.500;7.764;2024-02-15T03:30:23;98774.09;;;7.73;100.00
7433;BME280;32233;49.500;7.764;2024-02-15T03:32:51;98774.09;;;7.73;100.00
7433;BME280;32233;49.500;7.764;2024-02-15T03:35:19;98769.66;;;7.74;100.00
7433;BME280;32233;49.500;7.764;2024-02-15T03:37:46;98773.75;;;7.76;100.00
7433;BME280;32233;49.500;7.764;2024-02-15T03:40:13;98781.94;;;7.81;100.00
7433;BME280;32233;49.500;7.764;2024-02-15T03:42:41;98776.38;;;7.76;100.00
7433;BME280;32233;49.500;7.764;2024-02-15T03:45:08;98779.63;;;7.78;100.00
7433;BME280;32233;49.500;7.764;2024-02-15T03:47:35;98777.72;;;7.72;100.00
7433;BME280;32233;49.500;7.764;2024-02-15T03:50:03;98779.81;;;7.77;100.00
7433;BME280;32233;49.500;7.764;2024-02-15T03:52:31;98773.28;;;7.73;100.00
7433;BME280;32233;49.500;7.764;2024-02-15T03:54:58;98771.47;;;7.73;100.00
7433;BME280;32233;49.500;7.764;2024-02-15T03:57:26;98775.91;;;7.73;100.00
7433;BME280;32233;49.500;7.764;2024-02-15T03:59:53;98779.69;;;7.70;100.00
7433;BME280;32233;49.500;7.764;2024-02-15T04:02:21;98784.44;;;7.75;100.00
7433;BME280;32233;49.500;7.764;2024-02-15T04:04:49;98776.72;;;7.73;100.00
7433;BME280;32233;49.500;7.764;2024-02-15T04:07:19;98777.34;;;7.75;100.00
7433;BME280;32233;49.500;7.764;2024-02-15T04:09:46;98774.91;;;7.74;100.00
7433;BME280;32233;49.500;7.764;2024-02-15T04:12:12;98779.81;;;7.77;100.00
7433;BME280;32233;49.500;7.764;2024-02-15T04:14:41;98777.00;;;7.78;100.00
7433;BME280;32233;49.500;7.764;2024-02-15T04:17:07;98770.47;;;7.74;100.00
7433;BME280;32233;49.500;7.764;2024-02-15T04:19:34;98775.25;;;7.70;100.00
7433;BME280;32233;49.500;7.764;2024-02-15T04:22:01;98778.53;;;7.73;100.00
7433;BME280;32233;49.500;7.764;2024-02-15T04:24:30;98776.25;;;7.69;100.00
7433;BME280;32233;49.500;7.764;2024-02-15T04:26:58;98775.91;;;7.73;100.00
7433;BME280;32233;49.500;7.764;2024-02-15T04:29:25;98776.06;;;7.71;100.00
7433;BME280;32233;49.500;7.764;2024-02-15T04:31:52;98770.81;;;7.71;100.00
7433;BME280;32233;49.500;7.764;2024-02-15T04:34:21;98776.00;;;7.79;100.00
7433;BME280;32233;49.500;7.764;2024-02-15T04:36:48;98776.38;;;7.76;100.00
7433;BME280;32233;49.500;7.764;2024-02-15T04:39:22;98776.84;;;7.80;100.00
7433;BME280;32233;49.500;7.764;2024-02-15T04:41:53;98768.81;;;7.73;100.00
7433;BME280;32233;49.500;7.764;2024-02-15T04:44:21;98775.09;;;7.72;100.00
7433;BME280;32233;49.500;7.764;2024-02-15T04:46:48;98768.00;;;7.73;100.00
7433;BME280;32233;49.500;7.764;2024-02-15T04:49:16;98761.81;;;7.65;100.00
7433;BME280;32233;49.500;7.764;2024-02-15T04:51:42;98768.22;;;7.63;100.00
7433;BME280;32233;49.500;7.764;2024-02-15T04:54:10;98766.53;;;7.70;100.00
7433;BME280;32233;49.500;7.764;2024-02-15T04:56:42;98754.56;;;7.67;100.00
7433;BME280;32233;49.500;7.764;2024-02-15T04:59:09;98754.91;;;7.64;100.00
7433;BME280;32233;49.500;7.764;2024-02-15T05:01:42;98760.50;;;7.61;100.00
7433;BME280;32233;49.500;7.764;2024-02-15T05:04:12;98754.91;;;7.64;100.00
7433;BME280;32233;49.500;7.764;2024-02-15T05:06:40;98757.06;;;7.61;100.00
7433;BME280;32233;49.500;7.764;2024-02-15T05:09:07;98750.47;;;7.65;100.00
7433;BME280;32233;49.500;7.764;2024-02-15T05:11:34;98744.38;;;7.64;100.00
7433;BME280;32233;49.500;7.764;2024-02-15T05:14:04;98746.41;;;7.54;100.00
7433;BME280;32233;49.500;7.764;2024-02-15T05:16:33;98748.84;;;7.64;100.00
7433;BME280;32233;49.500;7.764;2024-02-15T05:19:00;98749.81;;;7.63;100.00
7433;BME280;32233;49.500;7.764;2024-02-15T05:21:27;98751.00;;;7.60;100.00
7433;BME280;32233;49.500;7.764;2024-02-15T05:23:53;98748.38;;;7.60;100.00
7433;BME280;32233;49.500;7.764;2024-02-15T05:26:22;98750.19;;;7.60;100.00
7433;BME280;32233;49.500;7.764;2024-02-15T05:28:50;98740.00;;;7.57;100.00
7433;BME280;32233;49.500;7.764;2024-02-15T05:31:20;98752.03;;;7.51;100.00
7433;BME280;32233;49.500;7.764;2024-02-15T05:33:47;98743.50;;;7.49;100.00
7433;BME280;32233;49.500;7.764;2024-02-15T05:36:17;98740.56;;;7.44;100.00
7433;BME280;32233;49.500;7.764;2024-02-15T05:38:51;98743.53;;;7.41;100.00
7433;BME280;32233;49.500;7.764;2024-02-15T05:41:19;98743.88;;;7.38;100.00
7433;BME280;32233;49.500;7.764;2024-02-15T05:43:47;98747.31;;;7.38;100.00
7433;BME280;32233;49.500;7.764;2024-02-15T05:46:19;98740.44;;;7.37;100.00
7433;BME280;32233;49.500;7.764;2024-02-15T05:48:49;98733.72;;;7.35;100.00
7433;BME280;32233;49.500;7.764;2024-02-15T05:51:17;98725.53;;;7.30;100.00
7433;BME280;32233;49.500;7.764;2024-02-15T05:53:43;98716.88;;;7.21;100.00
7433;BME280;32233;49.500;7.764;2024-02-15T05:56:10;98722.03;;;7.14;100.00
7433;BME280;32233;49.500;7.764;2024-02-15T05:58:38;98718.63;;;6.98;100.00
7433;BME280;32233;49.500;7.764;2024-02-15T06:01:06;98712.25;;;6.92;100.00
7433;BME280;32233;49.500;7.764;2024-02-15T06:03:34;98710.34;;;6.78;100.00
7433;BME280;32233;49.500;7.764;2024-02-15T06:06:04;98698.88;;;6.70;100.00
7433;BME280;32233;49.500;7.764;2024-02-15T06:08:35;98703.00;;;6.65;100.00
7433;BME280;32233;49.500;7.764;2024-02-15T06:11:02;98708.47;;;6.47;100.00
7433;BME280;32233;49.500;7.764;2024-02-15T06:13:31;98708.16;;;6.42;100.00
7433;BME280;32233;49.500;7.764;2024-02-15T06:15:57;98704.06;;;6.39;100.00
7433;BME280;32233;49.500;7.764;2024-02-15T06:18:28;98705.66;;;6.49;100.00
7433;BME280;32233;49.500;7.764;2024-02-15T06:20:56;98705.34;;;6.52;100.00
7433;BME280;32233;49.500;7.764;2024-02-15T06:23:26;98694.69;;;6.53;100.00
7433;BME280;32233;49.500;7.764;2024-02-15T06:25:55;98693.38;;;6.57;100.00
7433;BME280;32233;49.500;7.764;2024-02-15T06:28:25;98691.41;;;6.43;100.00
7433;BME280;32233;49.500;7.764;2024-02-15T06:31:11;98693.28;;;6.26;100.00
7433;BME280;32233;49.500;7.764;2024-02-15T06:33:56;98700.34;;;6.26;100.00
7433;BME280;32233;49.500;7.764;2024-02-15T06:36:49;98699.53;;;6.17;100.00
7433;BME280;32233;49.500;7.764;2024-02-15T06:39:35;98704.59;;;6.18;100.00
7433;BME280;32233;49.500;7.764;2024-02-15T06:42:06;98699.03;;;6.22;100.00
7433;BME280;32233;49.500;7.764;2024-02-15T06:44:33;98699.19;;;6.20;100.00
7433;BME280;32233;49.500;7.764;2024-02-15T06:47:00;98700.97;;;6.19;100.00
7433;BME280;32233;49.500;7.764;2024-02-15T06:49:26;98700.84;;;6.21;100.00
7433;BME280;32233;49.500;7.764;2024-02-15T06:51:53;98703.47;;;6.21;100.00
7433;BME280;32233;49.500;7.764;2024-02-15T06:54:21;98699.34;;;6.18;100.00
7433;BME280;32233;49.500;7.764;2024-02-15T06:56:49;98701.50;;;6.15;100.00
7433;BME280;32233;49.500;7.764;2024-02-15T06:59:18;98701.81;;;6.20;100.00
7433;BME280;32233;49.500;7.764;2024-02-15T07:01:45;98699.84;;;6.22;100.00
7433;BME280;32233;49.500;7.764;2024-02-15T07:04:12;98701.16;;;6.26;100.00
7433;BME280;32233;49.500;7.764;2024-02-15T07:06:39;98696.22;;;6.31;100.00
7433;BME280;32233;49.500;7.764;2024-02-15T07:09:06;98695.75;;;6.19;100.00
7433;BME280;32233;49.500;7.764;2024-02-15T07:11:33;98697.53;;;6.19;100.00
7433;BME280;32233;49.500;7.764;2024-02-15T07:14:01;98698.53;;;6.18;100.00
7433;BME280;32233;49.500;7.764;2024-02-15T07:16:28;98701.16;;;6.18;100.00
7433;BME280;32233;49.500;7.764;2024-02-15T07:18:55;98703.31;;;6.14;100.00
7433;BME280;32233;49.500;7.764;2024-02-15T07:21:22;98697.41;;;6.12;100.00
7433;BME280;32233;49.500;7.764;2024-02-15T07:23:53;98699.34;;;6.18;100.00
7433;BME280;32233;49.500;7.764;2024-02-15T07:26:24;98698.22;;;6.21;100.00
7433;BME280;32233;49.500;7.764;2024-02-15T07:28:54;98702.47;;;6.22;100.00
7433;BME280;32233;49.500;7.764;2024-02-15T07:31:21;98710.84;;;6.26;100.00
7433;BME280;32233;49.500;7.764;2024-02-15T07:33:48;98713.94;;;6.29;100.00
7433;BME280;32233;49.500;7.764;2024-02-15T07:36:19;98712.28;;;6.28;100.00
7433;BME280;32233;49.500;7.764;2024-02-15T07:38:51;98721.81;;;6.37;100.00
7433;BME280;32233;49.500;7.764;2024-02-15T07:41:20;98724.41;;;6.45;100.00
7433;BME280;32233;49.500;7.764;2024-02-15T07:43:49;98724.69;;;6.59;100.00
7433;BME280;32233;49.500;7.764;2024-02-15T07:46:17;98715.28;;;6.73;100.00
7433;BME280;32233;49.500;7.764;2024-02-15T07:48:43;98726.75;;;6.80;100.00
7433;BME280;32233;49.500;7.764;2024-02-15T07:51:18;98735.19;;;7.06;100.00
7433;BME280;32233;49.500;7.764;2024-02-15T07:53:45;98741.78;;;7.33;100.00
7433;BME280;32233;49.500;7.764;2024-02-15T07:56:14;98751.03;;;7.52;100.00
7433;BME280;32233;49.500;7.764;2024-02-15T07:58:42;98760.84;;;7.58;100.00
7433;BME280;32233;49.500;7.764;2024-02-15T08:01:16;98765.84;;;7.53;100.00
7433;BME280;32233;49.500;7.764;2024-02-15T08:03:43;98770.69;;;7.64;100.00
7433;BME280;32233;49.500;7.764;2024-02-15T08:06:14;98775.38;;;7.77;100.00
7433;BME280;32233;49.500;7.764;2024-02-15T08:08:42;98784.44;;;7.98;100.00
7433;BME280;32233;49.500;7.764;2024-02-15T08:11:13;98789.31;;;8.09;100.00
7433;BME280;32233;49.500;7.764;2024-02-15T08:13:49;98791.25;;;8.30;100.00
7433;BME280;32233;49.500;7.764;2024-02-15T08:16:18;98789.22;;;8.40;100.00
7433;BME280;32233;49.500;7.764;2024-02-15T08:18:45;98786.34;;;8.50;100.00
7433;BME280;32233;49.500;7.764;2024-02-15T08:21:13;98795.06;;;8.50;100.00
7433;BME280;32233;49.500;7.764;2024-02-15T08:23:40;98800.25;;;8.73;100.00
7433;BME280;32233;49.500;7.764;2024-02-15T08:26:07;98801.19;;;8.65;100.00
7433;BME280;32233;49.500;7.764;2024-02-15T08:28:34;98797.88;;;8.63;100.00
7433;BME280;32233;49.500;7.764;2024-02-15T08:31:00;98796.72;;;8.66;100.00
7433;BME280;32233;49.500;7.764;2024-02-15T08:33:27;98781.56;;;8.83;100.00
7433;BME280;32233;49.500;7.764;2024-02-15T08:35:55;98786.53;;;9.07;100.00
7433;BME280;32233;49.500;7.764;2024-02-15T08:38:22;98780.16;;;9.16;100.00
7433;BME280;32233;49.500;7.764;2024-02-15T08:40:51;98774.78;;;9.25;100.00
7433;BME280;32233;49.500;7.764;2024-02-15T08:43:23;98779.94;;;9.33;100.00
7433;BME280;32233;49.500;7.764;2024-02-15T08:45:49;98782.13;;;9.44;100.00
7433;BME280;32233;49.500;7.764;2024-02-15T08:48:17;98785.03;;;9.71;100.00
7433;BME280;32233;49.500;7.764;2024-02-15T08:50:44;98780.03;;;9.76;100.00
7433;BME280;32233;49.500;7.764;2024-02-15T08:53:12;98778.94;;;9.91;100.00
7433;BME280;32233;49.500;7.764;2024-02-15T08:55:39;98781.59;;;10.34;100.00
7433;BME280;32233;49.500;7.764;2024-02-15T08:58:05;98784.66;;;10.38;100.00
7433;BME280;32233;49.500;7.764;2024-02-15T09:00:32;98782.75;;;10.53;100.00
7433;BME280;32233;49.500;7.764;2024-02-15T09:02:59;98777.78;;;10.72;100.00
7433;BME280;32233;49.500;7.764;2024-02-15T09:05:26;98785.00;;;10.56;100.00
7433;BME280;32233;49.500;7.764;2024-02-15T09:07:53;98778.94;;;10.62;100.00
7433;BME280;32233;49.500;7.764;2024-02-15T09:10:20;98782.06;;;10.45;100.00
7433;BME280;32233;49.500;7.764;2024-02-15T09:12:49;98778.53;;;10.59;100.00
7433;BME280;32233;49.500;7.764;2024-02-15T09:15:16;98773.50;;;10.71;100.00
7433;BME280;32233;49.500;7.764;2024-02-15T09:17:44;98774.56;;;10.76;100.00
7433;BME280;32233;49.500;7.764;2024-02-15T09:20:14;98762.72;;;10.72;100.00
7433;BME280;32233;49.500;7.764;2024-02-15T09:22:51;98765.19;;;10.74;100.00
7433;BME280;32233;49.500;7.764;2024-02-15T09:25:19;98764.19;;;10.75;100.00
7433;BME280;32233;49.500;7.764;2024-02-15T09:27:45;98761.34;;;10.76;100.00
7433;BME280;32233;49.500;7.764;2024-02-15T09:30:13;98757.66;;;10.77;100.00
7433;BME280;32233;49.500;7.764;2024-02-15T09:32:40;98760.78;;;10.87;100.00
7433;BME280;32233;49.500;7.764;2024-02-15T09:35:08;98752.91;;;10.59;100.00
7433;BME280;32233;49.500;7.764;2024-02-15T09:37:36;98756.09;;;10.83;100.00
7433;BME280;32233;49.500;7.764;2024-02-15T09:40:11;98741.41;;;11.22;100.00
7433;BME280;32233;49.500;7.764;2024-02-15T09:42:39;98741.88;;;11.38;100.00
7433;BME280;32233;49.500;7.764;2024-02-15T09:45:16;98741.22;;;11.30;100.00
7433;BME280;32233;49.500;7.764;2024-02-15T09:48:14;98745.56;;;11.51;100.00
7433;BME280;32233;49.500;7.764;2024-02-15T09:51:07;98752.75;;;11.70;100.00
7433;BME280;32233;49.500;7.764;2024-02-15T09:53:52;98744.44;;;11.86;100.00
7433;BME280;32233;49.500;7.764;2024-02-15T09:56:40;98737.13;;;12.08;100.00
7433;BME280;32233;49.500;7.764;2024-02-15T09:59:43;98716.47;;;12.70;100.00
7433;BME280;32233;49.500;7.764;2024-02-15T10:02:32;98717.28;;;13.22;100.00
7433;BME280;32233;49.500;7.764;2024-02-15T10:05:12;98722.81;;;13.27;100.00
7433;BME280;32233;49.500;7.764;2024-02-15T10:07:46;98719.41;;;13.52;100.00
7433;BME280;32233;49.500;7.764;2024-02-15T10:10:25;98708.22;;;13.43;100.00
7433;BME280;32233;49.500;7.764;2024-02-15T10:12:56;98713.94;;;12.95;100.00
7433;BME280;32233;49.500;7.764;2024-02-15T10:16:01;98718.25;;;13.34;100.00
7433;BME280;32233;49.500;7.764;2024-02-15T10:19:08;98722.00;;;13.20;100.00
7433;BME280;32233;49.500;7.764;2024-02-15T10:21:47;98716.88;;;13.25;100.00
7433;BME280;32233;49.500;7.764;2024-02-15T10:24:39;98721.50;;;12.92;100.00
7433;BME280;32233;49.500;7.764;2024-02-15T10:27:23;98713.66;;;13.10;100.00
7433;BME280;32233;49.500;7.764;2024-02-15T10:30:21;98711.13;;;13.35;100.00
7433;BME280;32233;49.500;7.764;2024-02-15T10:36:11;98703.19;;;13.28;100.00
7433;BME280;32233;49.500;7.764;2024-02-15T10:39:22;98694.34;;;13.41;100.00
7433;BME280;32233;49.500;7.764;2024-02-15T10:41:54;98685.31;;;13.49;100.00
7433;BME280;32233;49.500;7.764;2024-02-15T10:44:29;98679.75;;;13.57;100.00
7433;BME280;32233;49.500;7.764;2024-02-15T10:47:10;98671.63;;;13.52;100.00
7433;BME280;32233;49.500;7.764;2024-02-15T10:49:51;98671.00;;;13.50;100.00
7433;BME280;32233;49.500;7.764;2024-02-15T10:52:27;98666.03;;;13.60;100.00
7433;BME280;32233;49.500;7.764;2024-02-15T10:55:25;98669.78;;;13.77;100.00
7433;BME280;32233;49.500;7.764;2024-02-15T10:58:05;98665.13;;;13.73;100.00
7433;BME280;32233;49.500;7.764;2024-02-15T11:00:56;98659.31;;;13.82;100.00
7433;BME280;32233;49.500;7.764;2024-02-15T11:03:49;98654.38;;;13.86;100.00
7433;BME280;32233;49.500;7.764;2024-02-15T11:06:35;98640.41;;;14.16;100.00
7433;BME280;32233;49.500;7.764;2024-02-15T11:09:16;98638.13;;;14.01;100.00
7433;BME280;32233;49.500;7.764;2024-02-15T11:11:57;98637.19;;;14.13;100.00
7433;BME280;32233;49.500;7.764;2024-02-15T11:14:53;98634.00;;;14.23;100.00
7433;BME280;32233;49.500;7.764;2024-02-15T11:23:24;98613.13;;;14.27;100.00
7433;BME280;32233;49.500;7.764;2024-02-15T11:26:51;98611.97;;;13.98;100.00
7433;BME280;32233;49.500;7.764;2024-02-15T11:32:45;98613.56;;;14.42;100.00
7433;BME280;32233;49.500;7.764;2024-02-15T11:35:24;98613.63;;;14.35;100.00
7433;BME280;32233;49.500;7.764;2024-02-15T11:37:56;98613.88;;;14.52;100.00
7433;BME280;32233;49.500;7.764;2024-02-15T11:42:58;98601.84;;;14.50;100.00
7433;BME280;32233;49.500;7.764;2024-02-15T11:45:27;98600.50;;;14.59;100.00
7433;BME280;32233;49.500;7.764;2024-02-15T11:48:09;98594.50;;;14.64;100.00
7433;BME280;32233;49.500;7.764;2024-02-15T11:50:40;98591.78;;;14.70;100.00
7433;BME280;32233;49.500;7.764;2024-02-15T11:53:08;98590.16;;;14.99;100.00
7433;BME280;32233;49.500;7.764;2024-02-15T11:55:38;98586.22;;;15.02;100.00
7433;BME280;32233;49.500;7.764;2024-02-15T11:58:07;98588.72;;;14.85;100.00
7433;BME280;32233;49.500;7.764;2024-02-15T12:00:38;98586.69;;;14.99;100.00
7433;BME280;32233;49.500;7.764;2024-02-15T12:03:24;98578.22;;;15.02;100.00
7433;BME280;32233;49.500;7.764;2024-02-15T12:06:27;98584.47;;;14.96;100.00
7433;BME280;32233;49.500;7.764;2024-02-15T12:09:17;98581.13;;;15.42;100.00
7433;BME280;32233;49.500;7.764;2024-02-15T12:12:02;98578.69;;;15.41;100.00
7433;BME280;32233;49.500;7.764;2024-02-15T12:14:48;98569.19;;;15.33;100.00
7433;BME280;32233;49.500;7.764;2024-02-15T12:17:33;98561.63;;;15.30;100.00
7433;BME280;32233;49.500;7.764;2024-02-15T12:20:19;98561.28;;;15.26;100.00
7433;BME280;32233;49.500;7.764;2024-02-15T12:22:52;98564.06;;;15.20;100.00
7433;BME280;32233;49.500;7.764;2024-02-15T12:25:20;98552.31;;;14.97;100.00
7433;BME280;32233;49.500;7.764;2024-02-15T12:27:59;98548.66;;;15.22;100.00
7433;BME280;32233;49.500;7.764;2024-02-15T12:30:32;98555.03;;;14.79;100.00
7433;BME280;32233;49.500;7.764;2024-02-15T12:33:10;98547.66;;;14.93;100.00
7433;BME280;32233;49.500;7.764;2024-02-15T12:35:46;98539.28;;;14.77;100.00
7433;BME280;32233;49.500;7.764;2024-02-15T12:38:12;98544.13;;;15.22;100.00
7433;BME280;32233;49.500;7.764;2024-02-15T12:40:43;98537.13;;;15.51;100.00
7433;BME280;32233;49.500;7.764;2024-02-15T12:43:15;98540.06;;;15.73;100.00
7433;BME280;32233;49.500;7.764;2024-02-15T12:45:44;98532.41;;;15.89;100.00
7433;BME280;32233;49.500;7.764;2024-02-15T12:48:10;98523.72;;;15.81;100.00
7433;BME280;32233;49.500;7.764;2024-02-15T12:50:38;98514.75;;;15.99;100.00
7433;BME280;32233;49.500;7.764;2024-02-15T12:53:05;98512.09;;;15.88;100.00
7433;BME280;32233;49.500;7.764;2024-02-15T12:55:34;98512.31;;;16.09;100.00
7433;BME280;32233;49.500;7.764;2024-02-15T12:58:04;98507.00;;;15.98;100.00
7433;BME280;32233;49.500;7.764;2024-02-15T13:00:36;98503.28;;;15.99;100.00
7433;BME280;32233;49.500;7.764;2024-02-15T13:03:07;98504.09;;;15.99;100.00
7433;BME280;32233;49.500;7.764;2024-02-15T13:05:38;98505.97;;;15.99;100.00
7433;BME280;32233;49.500;7.764;2024-02-15T13:08:06;98500.78;;;15.92;100.00
7433;BME280;32233;49.500;7.764;2024-02-15T13:10:37;98510.00;;;15.54;100.00
7433;BME280;32233;49.500;7.764;2024-02-15T13:13:06;98499.16;;;15.56;100.00
7433;BME280;32233;49.500;7.764;2024-02-15T13:15:32;98492.75;;;15.22;100.00
7433;BME280;32233;49.500;7.764;2024-02-15T13:18:01;98498.53;;;15.07;100.00
7433;BME280;32233;49.500;7.764;2024-02-15T13:20:31;98489.84;;;15.11;100.00
7433;BME280;32233;49.500;7.764;2024-02-15T13:25:36;98477.31;;;15.00;100.00
7433;BME280;32233;49.500;7.764;2024-02-15T13:28:04;98477.09;;;15.02;100.00
7433;BME280;32233;49.500;7.764;2024-02-15T13:30:32;98474.09;;;15.10;100.00
7433;BME280;32233;49.500;7.764;2024-02-15T13:32:58;98471.44;;;14.98;100.00
7433;BME280;32233;49.500;7.764;2024-02-15T13:35:29;98464.72;;;14.96;100.00
7433;BME280;32233;49.500;7.764;2024-02-15T13:37:56;98468.75;;;14.86;100.00
7433;BME280;32233;49.500;7.764;2024-02-15T13:40:27;98459.00;;;14.80;100.00
7433;BME280;32233;49.500;7.764;2024-02-15T13:42:55;98455.22;;;15.00;100.00
7433;BME280;32233;49.500;7.764;2024-02-15T13:45:33;98446.53;;;15.04;100.00
7433;BME280;32233;49.500;7.764;2024-02-15T13:48:06;98443.16;;;14.85;100.00